Time;durP1;ratioP1;P1;durP2;ratioP2;P2;SDS_P1;SDS_P2;PMS_P1;PMS_P2;Temp;Humidity;BMP_temperature;BMP_pressure;BME280_temperature;BME280_humidity;BME280_pressure;Samples;Min_cycle;Max_cycle;Signal;HPM_P1;HPM_P2
2024/01/03 00:00:44;;;;;;;38.53;18.63;;;;;;;4.40;85.06;99496.69;3144665;28;20055;-69
2024/01/03 00:02:17;;;;;;;36.30;19.17;;;;;;;4.40;85.15;99494.94;3153831;28;20509;-68
2024/01/03 00:03:49;;;;;;;39.55;19.50;;;;;;;4.39;85.21;99495.00;3145135;28;20135;-69
2024/01/03 00:05:22;;;;;;;43.20;20.15;;;;;;;4.41;85.21;99482.91;3144070;28;20055;-69
2024/01/03 00:06:54;;;;;;;41.13;19.50;;;;;;;4.27;85.38;99463.50;3144315;28;20142;-70
2024/01/03 00:08:26;;;;;;;48.00;21.65;;;;;;;4.39;85.36;99482.97;3144413;28;20048;-69
2024/01/03 00:09:58;;;;;;;41.80;21.17;;;;;;;4.40;85.50;99487.22;3144367;28;20122;-68
2024/01/03 00:11:30;;;;;;;41.03;20.45;;;;;;;4.41;85.50;99482.91;3144358;28;20053;-68
2024/01/03 00:13:05;;;;;;;43.08;21.10;;;;;;;4.40;85.50;99489.78;3144541;28;20045;-68
2024/01/03 00:14:36;;;;;;;52.03;22.17;;;;;;;4.39;85.55;99495.00;3143896;28;20049;-68
2024/01/03 00:16:22;;;;;;;51.20;21.75;;;;;;;4.39;85.55;99492.44;3144377;28;20525;-68
2024/01/03 00:17:54;;;;;;;49.42;22.17;;;;;;;4.38;85.67;99495.88;3144251;28;20117;-67
2024/01/03 00:19:25;;;;;;;53.13;22.80;;;;;;;4.36;85.83;99485.63;3144358;28;20524;-68
2024/01/03 00:20:57;;;;;;;53.38;24.48;;;;;;;4.38;85.78;99488.13;3144220;28;20053;-68
2024/01/03 00:22:29;;;;;;;59.80;24.90;;;;;;;4.36;85.97;99493.34;3144331;28;20056;-68
2024/01/03 00:24:03;;;;;;;54.95;24.98;;;;;;;4.39;86.10;99489.84;3144414;28;20049;-68
2024/01/03 00:25:35;;;;;;;52.75;25.92;;;;;;;4.37;86.06;99482.13;3144579;28;20052;-68
2024/01/03 00:27:07;;;;;;;56.70;25.48;;;;;;;4.38;86.09;99477.81;3143958;28;20049;-69
2024/01/03 00:28:39;;;;;;;55.22;25.80;;;;;;;4.36;86.29;99492.50;3142932;28;20060;-71
2024/01/03 00:30:14;;;;;;;52.90;25.52;;;;;;;4.34;86.57;99487.38;3144217;28;20052;-70
2024/01/03 00:31:46;;;;;;;55.85;24.25;;;;;;;4.36;86.48;99495.94;3144266;28;20072;-70
2024/01/03 00:33:18;;;;;;;56.90;24.67;;;;;;;4.34;86.78;99488.22;3144407;28;20048;-70
2024/01/03 00:34:50;;;;;;;59.67;25.95;;;;;;;4.35;86.76;99496.81;3144512;28;20515;-69
2024/01/03 00:36:21;;;;;;;59.45;25.83;;;;;;;4.38;86.79;99495.88;3144385;28;20044;-70
2024/01/03 00:37:53;;;;;;;56.13;25.95;;;;;;;4.37;86.86;99496.75;3131997;28;20537;-70
2024/01/03 00:39:26;;;;;;;64.03;26.85;;;;;;;4.28;86.77;99482.38;3143367;28;20044;-70
2024/01/03 00:40:57;;;;;;;54.45;27.10;;;;;;;4.38;86.95;99501.91;3133662;28;20503;-69
2024/01/03 00:42:28;;;;;;;66.68;27.30;;;;;;;4.42;86.91;99502.66;3141879;28;20513;-66
2024/01/03 00:44:00;;;;;;;59.08;26.83;;;;;;;4.43;87.02;99502.59;3143849;28;20105;-66
2024/01/03 00:45:31;;;;;;;62.90;26.77;;;;;;;4.45;86.87;99502.59;3144161;28;20146;-68
2024/01/03 00:47:05;;;;;;;55.80;25.38;;;;;;;4.46;86.90;99496.53;3145589;28;20834;-68
2024/01/03 00:48:36;;;;;;;57.25;25.65;;;;;;;4.45;86.85;99497.44;3146454;28;20059;-67
2024/01/03 00:50:09;;;;;;;53.70;23.95;;;;;;;4.43;86.91;99492.28;3146821;28;20063;-68
2024/01/03 00:51:40;;;;;;;53.30;24.05;;;;;;;4.39;87.17;99495.00;3146346;28;20458;-68
2024/01/03 00:53:12;;;;;;;45.05;23.08;;;;;;;4.23;86.99;99467.03;3146516;28;20052;-68
2024/01/03 00:54:45;;;;;;;44.22;22.38;;;;;;;4.37;87.01;99495.03;3146620;28;20056;-67
2024/01/03 00:56:18;;;;;;;49.67;22.70;;;;;;;4.36;87.10;99488.19;3146493;28;20056;-67
2024/01/03 00:57:48;;;;;;;45.85;22.20;;;;;;;4.36;87.10;99489.94;3149970;28;20044;-68
2024/01/03 00:59:21;;;;;;;50.45;21.52;;;;;;;4.37;87.04;99494.19;3148424;28;20040;-68
2024/01/03 01:00:52;;;;;;;47.63;23.02;;;;;;;4.36;87.03;99498.50;3146518;28;20055;-67
2024/01/03 01:02:25;;;;;;;46.90;22.23;;;;;;;4.37;86.82;99492.44;3146102;28;20070;-67
2024/01/03 01:03:55;;;;;;;45.15;21.13;;;;;;;4.34;86.98;99489.94;3146387;28;20054;-68
2024/01/03 01:05:27;;;;;;;38.40;20.00;;;;;;;4.34;86.87;99492.53;3146441;28;20059;-68
2024/01/03 01:06:58;;;;;;;44.83;21.25;;;;;;;4.33;86.90;99491.69;3146233;28;20051;-68
2024/01/03 01:08:30;;;;;;;43.53;22.48;;;;;;;4.36;87.05;99495.09;3146170;28;20141;-68
2024/01/03 01:10:01;;;;;;;45.60;21.42;;;;;;;3.99;86.74;99439.25;3146188;28;20433;-67
2024/01/03 01:11:33;;;;;;;38.42;21.10;;;;;;;4.25;86.70;99488.44;3146360;28;20052;-67
2024/01/03 01:13:03;;;;;;;40.20;21.23;;;;;;;4.17;86.47;99500.69;3146377;28;20048;-67
2024/01/03 01:14:35;;;;;;;40.60;21.20;;;;;;;4.09;86.29;99494.88;3146186;28;20068;-67
2024/01/03 01:16:06;;;;;;;38.38;20.10;;;;;;;4.02;86.24;99496.75;3145985;28;20048;-67
2024/01/03 01:17:39;;;;;;;44.50;21.50;;;;;;;3.97;86.20;99497.72;3146671;28;20147;-67
2024/01/03 01:19:10;;;;;;;43.72;22.10;;;;;;;3.86;86.00;99500.53;3146320;28;20048;-67
2024/01/03 01:20:42;;;;;;;50.13;22.90;;;;;;;3.80;86.05;99506.69;3136973;28;20465;-67
2024/01/03 01:22:12;;;;;;;44.50;21.05;;;;;;;3.72;85.84;99500.00;3146054;28;20835;-67
2024/01/03 01:23:44;;;;;;;50.10;22.23;;;;;;;3.63;85.87;99508.78;3145475;28;20044;-67
2024/01/03 01:25:17;;;;;;;48.00;22.38;;;;;;;3.58;85.98;99511.47;3146148;28;20059;-67
2024/01/03 01:26:49;;;;;;;47.72;22.80;;;;;;;3.51;86.07;99504.72;3146075;28;20061;-67
2024/01/03 01:28:19;;;;;;;48.72;22.38;;;;;;;3.47;85.94;99505.69;3145962;28;20049;-67
2024/01/03 01:29:51;;;;;;;51.40;22.20;;;;;;;3.41;85.91;99498.94;3145969;28;20045;-67
2024/01/03 01:31:22;;;;;;;46.55;21.23;;;;;;;3.35;85.99;99499.06;3146252;28;20484;-67
2024/01/03 01:32:55;;;;;;;43.75;21.13;;;;;;;3.34;86.17;99501.66;3146088;28;20052;-67
2024/01/03 01:34:26;;;;;;;47.50;21.58;;;;;;;3.30;85.92;99498.31;3145920;28;20048;-67
2024/01/03 01:35:57;;;;;;;43.20;21.08;;;;;;;3.29;85.93;99495.78;3147287;28;20127;-67
2024/01/03 01:37:28;;;;;;;44.58;21.77;;;;;;;3.32;85.95;99503.44;3146122;28;20060;-67
2024/01/03 01:39:00;;;;;;;46.42;20.52;;;;;;;3.32;85.80;99501.69;3145695;28;20049;-66
2024/01/03 01:40:31;;;;;;;46.03;20.85;;;;;;;3.31;85.83;99505.16;3145828;28;20051;-66
2024/01/03 01:42:03;;;;;;;45.53;21.45;;;;;;;3.28;85.74;99500.06;3145760;28;20048;-66
2024/01/03 01:43:33;;;;;;;43.17;21.92;;;;;;;3.26;85.69;99503.56;3145418;28;20051;-66
2024/01/03 01:45:06;;;;;;;44.80;20.52;;;;;;;3.24;85.60;99513.03;3145977;28;20052;-66
2024/01/03 01:46:40;;;;;;;40.80;19.13;;;;;;;3.21;85.63;99505.38;3133778;28;20116;-66
2024/01/03 01:48:15;;;;;;;35.95;17.70;;;;;;;3.19;85.71;99507.97;3145338;28;20307;-66
2024/01/03 01:49:47;;;;;;;39.35;19.35;;;;;;;3.18;85.62;99511.41;3145988;28;20045;-66
2024/01/03 01:51:18;;;;;;;35.05;19.50;;;;;;;3.16;85.43;99518.31;3145700;28;20413;-67
2024/01/03 01:52:49;;;;;;;43.80;19.45;;;;;;;3.14;85.54;99514.94;3145633;28;20053;-67
2024/01/03 01:54:20;;;;;;;38.47;19.35;;;;;;;3.13;85.53;99508.91;3151730;28;20603;-68
2024/01/03 01:55:53;;;;;;;43.95;20.33;;;;;;;3.13;85.52;99502.94;3150153;28;20485;-68
2024/01/03 01:57:24;;;;;;;40.28;19.20;;;;;;;3.07;85.48;99511.63;3145368;28;20113;-67
2024/01/03 01:58:57;;;;;;;43.92;20.67;;;;;;;3.08;85.62;99517.63;3145454;28;20096;-68
2024/01/03 02:00:28;;;;;;;45.53;18.65;;;;;;;3.06;85.59;99507.34;3145819;28;20063;-68
2024/01/03 02:02:00;;;;;;;49.33;20.25;;;;;;;3.07;85.65;99505.63;3145598;28;20462;-67
2024/01/03 02:03:33;;;;;;;48.65;22.25;;;;;;;3.06;85.46;99509.94;3146059;28;20052;-68
2024/01/03 02:05:06;;;;;;;42.17;19.63;;;;;;;3.04;85.58;99503.13;3145320;28;20410;-68
2024/01/03 02:06:37;;;;;;;46.38;20.48;;;;;;;3.05;85.69;99500.53;3145353;28;20059;-68
2024/01/03 02:08:09;;;;;;;55.75;22.27;;;;;;;3.05;85.69;99500.53;3145779;28;20049;-68
2024/01/03 02:09:41;;;;;;;39.53;19.75;;;;;;;3.02;85.70;99503.16;3145624;28;20068;-68
2024/01/03 02:11:13;;;;;;;37.28;17.80;;;;;;;3.00;85.80;99504.91;3145618;28;20087;-69
2024/01/03 02:12:44;;;;;;;44.97;19.42;;;;;;;2.99;85.91;99503.22;3145741;28;20048;-68
2024/01/03 02:14:16;;;;;;;41.47;20.13;;;;;;;2.96;86.15;99495.56;3145226;28;20051;-68
2024/01/03 02:15:47;;;;;;;48.55;20.95;;;;;;;2.94;86.12;99498.16;3145884;28;20044;-68
2024/01/03 02:17:19;;;;;;;42.03;20.25;;;;;;;2.94;86.28;99500.72;3145534;28;20453;-69
2024/01/03 02:18:52;;;;;;;41.33;18.55;;;;;;;2.89;86.53;99487.09;3136483;28;20064;-69
2024/01/03 02:20:25;;;;;;;47.75;20.48;;;;;;;2.49;86.58;99423.56;3145475;28;20128;-69
2024/01/03 02:22:00;;;;;;;40.63;18.83;;;;;;;2.94;86.66;99499.88;3145426;28;20086;-69
2024/01/03 02:23:30;;;;;;;40.35;18.58;;;;;;;2.92;86.93;99491.34;3145695;28;20354;-70
2024/01/03 02:25:04;;;;;;;42.22;19.52;;;;;;;2.92;87.14;99481.88;3145600;28;20056;-69
2024/01/03 02:26:34;;;;;;;;;;;;;;;2.80;87.22;99489.00;3146051;28;20056;-69
2024/01/03 02:28:10;;;;;;;38.17;17.58;;;;;;;2.83;87.48;99486.38;3145303;28;20424;-69
2024/01/03 02:29:41;;;;;;;39.88;18.38;;;;;;;2.83;87.55;99476.94;3145303;28;20050;-69
2024/01/03 02:31:12;;;;;;;35.40;17.15;;;;;;;2.87;87.54;99475.13;3145431;28;20754;-69
2024/01/03 02:32:44;;;;;;;39.38;18.55;;;;;;;2.89;87.65;99476.81;3145544;28;20048;-71
2024/01/03 02:34:15;;;;;;;39.33;19.02;;;;;;;2.88;87.89;99477.69;3145212;28;20048;-70
2024/01/03 02:35:46;;;;;;;42.47;19.33;;;;;;;2.86;88.04;99479.44;3150990;28;20441;-70
2024/01/03 02:37:22;;;;;;;37.80;18.17;;;;;;;2.86;88.10;99469.16;3145476;28;20548;-71
2024/01/03 02:38:56;;;;;;;38.92;18.38;;;;;;;2.80;88.45;99471.00;3145259;28;20053;-69
2024/01/03 02:40:28;;;;;;;40.25;18.60;;;;;;;2.75;88.70;99465.94;3144989;28;20536;-69
2024/01/03 02:41:59;;;;;;;39.83;19.38;;;;;;;2.78;88.96;99476.19;3145535;28;20064;-70
2024/01/03 02:43:30;;;;;;;42.47;19.88;;;;;;;2.73;89.29;99472.84;3144455;28;20049;-67
2024/01/03 02:45:01;;;;;;;50.15;19.80;;;;;;;2.70;89.56;99473.75;3145207;28;20071;-66
2024/01/03 02:46:33;;;;;;;46.60;20.35;;;;;;;2.68;89.85;99474.66;3145274;28;20051;-66
2024/01/03 02:48:05;;;;;;;46.05;20.40;;;;;;;2.71;89.80;99474.59;3145150;28;20052;-66
2024/01/03 02:49:36;;;;;;;45.38;20.45;;;;;;;2.70;90.09;99471.16;3145411;28;20055;-66
2024/01/03 02:51:07;;;;;;;47.17;20.80;;;;;;;2.75;90.09;99481.34;3145884;28;20552;-66
2024/01/03 02:52:40;;;;;;;47.45;20.08;;;;;;;2.78;89.95;99478.75;3145047;28;20052;-66
2024/01/03 02:54:11;;;;;;;49.60;20.42;;;;;;;2.78;90.19;99489.03;3145307;28;20052;-66
2024/01/03 02:55:43;;;;;;;46.42;21.90;;;;;;;2.81;90.12;99480.41;3145259;28;20056;-66
2024/01/03 02:57:14;;;;;;;42.30;19.98;;;;;;;2.82;90.17;99482.97;3145113;28;20072;-66
2024/01/03 02:58:46;;;;;;;51.72;21.48;;;;;;;2.81;90.10;99470.09;3144879;28;20537;-66
2024/01/03 03:00:17;;;;;;;43.35;20.02;;;;;;;2.89;90.18;99481.09;3145181;28;20671;-66
2024/01/03 03:01:49;;;;;;;53.42;21.02;;;;;;;2.90;90.16;99475.94;3145175;28;20598;-66
2024/01/03 03:03:20;;;;;;;43.40;19.67;;;;;;;2.91;90.19;99472.50;3144621;28;20048;-66
2024/01/03 03:04:51;;;;;;;42.55;19.85;;;;;;;2.91;90.38;99466.50;3145143;28;20052;-66
2024/01/03 03:06:22;;;;;;;44.65;20.33;;;;;;;2.90;90.59;99457.09;3144827;28;20056;-66
2024/01/03 03:07:55;;;;;;;42.42;20.02;;;;;;;2.89;90.59;99460.53;3145178;28;20532;-66
2024/01/03 03:09:26;;;;;;;43.15;19.10;;;;;;;2.84;90.83;99452.06;3144327;28;20639;-66
2024/01/03 03:10:58;;;;;;;39.83;19.20;;;;;;;2.83;91.14;99464.06;3145035;28;20048;-66
2024/01/03 03:12:29;;;;;;;41.45;18.73;;;;;;;2.83;91.18;99473.50;3144832;28;20067;-67
2024/01/03 03:14:00;;;;;;;45.45;20.10;;;;;;;2.80;91.38;99478.72;3144747;28;20056;-67
2024/01/03 03:15:32;;;;;;;39.85;20.40;;;;;;;2.80;91.59;99478.72;3144956;28;20435;-66
2024/01/03 03:17:03;;;;;;;39.05;18.45;;;;;;;2.81;91.77;99475.25;3144518;28;20059;-66
2024/01/03 03:18:35;;;;;;;45.15;20.48;;;;;;;2.82;91.79;99484.69;3144737;28;20147;-67
2024/01/03 03:20:06;;;;;;;49.08;20.88;;;;;;;2.82;91.99;99488.09;3144776;28;20534;-67
2024/01/03 03:21:38;;;;;;;49.05;22.25;;;;;;;2.86;92.00;99478.59;3144688;28;20139;-67
2024/01/03 03:23:10;;;;;;;43.15;20.25;;;;;;;2.87;92.05;99465.72;3144993;28;20052;-66
2024/01/03 03:24:42;;;;;;;46.42;20.15;;;;;;;2.88;92.01;99469.13;3144964;28;20604;-65
2024/01/03 03:26:12;;;;;;;50.88;21.58;;;;;;;2.88;92.23;99462.25;3144788;28;20052;-66
2024/01/03 03:27:44;;;;;;;48.42;21.15;;;;;;;2.89;92.36;99466.53;3144970;28;20044;-66
2024/01/03 03:29:15;;;;;;;45.90;21.92;;;;;;;2.90;92.34;99463.09;3144133;28;20052;-65
2024/01/03 03:30:47;;;;;;;46.13;22.15;;;;;;;2.86;92.39;99469.16;3144975;28;20506;-68
2024/01/03 03:32:18;;;;;;;47.95;21.50;;;;;;;2.85;92.61;99464.06;3144992;28;20048;-65
2024/01/03 03:33:49;;;;;;;41.70;20.80;;;;;;;2.86;92.71;99456.28;3145047;28;20060;-66
2024/01/03 03:35:21;;;;;;;49.45;21.48;;;;;;;2.86;92.78;99453.72;3150445;28;20044;-66
2024/01/03 03:36:52;;;;;;;47.70;22.48;;;;;;;2.50;92.88;99388.44;3132619;28;20589;-67
2024/01/03 03:38:25;;;;;;;50.38;23.48;;;;;;;2.85;93.13;99449.47;3144401;28;20063;-69
2024/01/03 03:39:56;;;;;;;53.85;22.88;;;;;;;2.85;93.05;99453.75;3144394;28;20383;-67
2024/01/03 03:41:27;;;;;;;55.33;22.52;;;;;;;2.84;93.16;99447.78;3145068;28;20068;-67
2024/01/03 03:42:58;;;;;;;47.90;22.63;;;;;;;2.86;93.25;99455.44;3144307;28;20056;-67
2024/01/03 03:44:30;;;;;;;48.47;22.02;;;;;;;2.86;93.25;99463.16;3144409;28;20224;-67
2024/01/03 03:46:01;;;;;;;46.85;21.40;;;;;;;2.85;93.42;99458.91;3144787;28;20496;-70
2024/01/03 03:47:32;;;;;;;51.20;22.35;;;;;;;2.83;93.46;99464.06;3145232;28;20044;-67
2024/01/03 03:49:03;;;;;;;50.60;21.80;;;;;;;2.81;93.73;99459.81;3144415;28;20067;-68
2024/01/03 03:50:35;;;;;;;46.65;21.85;;;;;;;2.80;93.88;99460.72;3144623;28;20071;-66
2024/01/03 03:52:07;;;;;;;52.05;23.92;;;;;;;2.81;94.06;99463.28;3144745;28;20072;-66
2024/01/03 03:53:39;;;;;;;49.65;21.50;;;;;;;2.82;94.09;99466.69;3144998;28;20052;-66
2024/01/03 03:55:13;;;;;;;51.97;24.00;;;;;;;2.41;94.04;99386.88;3144403;28;20549;-66
2024/01/03 03:56:45;;;;;;;50.88;24.08;;;;;;;2.88;94.17;99466.56;3144552;28;20060;-66
2024/01/03 03:58:16;;;;;;;55.35;23.45;;;;;;;2.90;94.29;99462.25;3144556;28;20517;-64
2024/01/03 03:59:48;;;;;;;52.28;22.80;;;;;;;2.90;94.12;99460.50;3144590;28;20048;-67
2024/01/03 04:01:19;;;;;;;61.42;27.33;;;;;;;2.46;94.06;99387.66;3144395;28;20055;-66
2024/01/03 04:02:52;;;;;;;48.80;22.38;;;;;;;2.93;94.08;99465.59;3144861;28;20469;-68
2024/01/03 04:04:22;;;;;;;47.83;22.92;;;;;;;2.92;94.20;99461.31;3144580;28;20048;-66
2024/01/03 04:05:54;;;;;;;56.45;24.60;;;;;;;2.93;94.31;99463.03;3144372;28;20471;-65
2024/01/03 04:07:26;;;;;;;54.00;21.90;;;;;;;2.95;94.15;99463.81;3144902;28;20048;-67
2024/01/03 04:08:59;;;;;;;46.72;21.30;;;;;;;2.96;94.21;99465.53;3144521;28;20052;-65
2024/01/03 04:10:30;;;;;;;54.53;23.77;;;;;;;2.95;94.22;99463.81;3144000;28;20044;-65
2024/01/03 04:12:02;;;;;;;57.40;23.15;;;;;;;2.96;94.21;99455.25;3144501;28;20075;-70
2024/01/03 04:13:33;;;;;;;63.63;26.15;;;;;;;2.97;94.28;99454.38;3144077;28;20564;-67
2024/01/03 04:15:05;;;;;;;49.38;22.75;;;;;;;2.99;94.12;99459.50;3144659;28;20053;-68
2024/01/03 04:16:36;;;;;;;58.33;24.50;;;;;;;2.98;94.33;99457.78;3144439;28;20051;-68
2024/01/03 04:18:08;;;;;;;51.42;23.52;;;;;;;3.00;94.39;99465.47;3144469;28;20397;-68
2024/01/03 04:19:39;;;;;;;49.78;23.15;;;;;;;3.00;94.29;99465.47;3144777;28;20040;-70
2024/01/03 04:21:10;;;;;;;59.72;29.17;;;;;;;3.01;94.25;99468.00;3146470;28;20055;-70
2024/01/03 04:22:43;;;;;;;66.80;30.13;;;;;;;3.02;94.30;99462.00;3147201;28;20048;-70
2024/01/03 04:24:16;;;;;;;62.80;24.20;;;;;;;3.03;94.30;99455.97;3147117;28;20079;-69
2024/01/03 04:25:46;;;;;;;52.13;21.95;;;;;;;3.02;94.39;99445.69;3147125;28;20048;-68
2024/01/03 04:27:18;;;;;;;50.08;22.10;;;;;;;3.03;94.49;99450.81;3146711;28;20052;-69
2024/01/03 04:28:49;;;;;;;56.78;23.60;;;;;;;3.05;94.59;99453.38;3146688;28;20075;-70
2024/01/03 04:30:21;;;;;;;59.78;24.10;;;;;;;3.07;94.57;99464.47;3147060;28;20048;-70
2024/01/03 04:31:51;;;;;;;55.78;22.60;;;;;;;3.09;94.55;99462.72;3147098;28;20044;-69
2024/01/03 04:33:23;;;;;;;59.72;23.38;;;;;;;3.09;94.61;99455.84;3147049;28;20067;-70
2024/01/03 04:34:54;;;;;;;55.08;23.88;;;;;;;3.08;94.55;99446.44;3148856;28;20102;-69
2024/01/03 04:36:26;;;;;;;53.03;22.83;;;;;;;3.10;94.64;99451.53;3149701;28;20041;-69
2024/01/03 04:38:02;;;;;;;59.97;23.20;;;;;;;3.11;94.70;99458.41;3147148;28;20048;-70
2024/01/03 04:39:35;;;;;;;52.08;23.40;;;;;;;3.10;94.50;99451.53;3147275;28;20503;-70
2024/01/03 04:41:06;;;;;;;53.40;22.52;;;;;;;2.97;94.33;99454.38;3146801;28;20040;-67
2024/01/03 04:42:38;;;;;;;58.55;22.63;;;;;;;2.86;94.14;99458.88;3146539;28;20048;-67
2024/01/03 04:44:10;;;;;;;53.88;22.23;;;;;;;2.77;94.24;99453.06;3146541;28;20115;-67
2024/01/03 04:45:41;;;;;;;51.55;21.85;;;;;;;2.72;94.49;99453.13;3146968;28;20567;-67
2024/01/03 04:47:12;;;;;;;47.45;20.00;;;;;;;2.66;94.54;99455.81;3146939;28;20044;-67
2024/01/03 04:48:44;;;;;;;44.20;19.27;;;;;;;2.66;94.48;99458.38;3146738;28;20053;-67
2024/01/03 04:50:15;;;;;;;41.75;18.52;;;;;;;2.61;94.45;99460.22;3144636;28;20071;-67
2024/01/03 04:51:46;;;;;;;41.45;17.27;;;;;;;2.49;94.29;99454.41;3135743;28;20068;-70
2024/01/03 04:53:17;;;;;;;42.75;17.80;;;;;;;2.43;94.34;99451.97;3146950;28;20060;-70
2024/01/03 04:54:50;;;;;;;37.33;17.02;;;;;;;2.31;94.45;99431.63;3146670;28;20057;-70
2024/01/03 04:56:24;;;;;;;41.47;18.33;;;;;;;2.27;94.50;99443.66;3134791;28;20053;-70
2024/01/03 04:57:55;;;;;;;44.03;17.80;;;;;;;2.23;94.53;99451.44;3146716;28;20056;-70
2024/01/03 04:59:27;;;;;;;44.67;18.98;;;;;;;2.24;94.79;99448.00;3146391;28;20651;-70
2024/01/03 05:00:59;;;;;;;47.40;19.00;;;;;;;2.17;94.75;99431.84;3141907;28;20044;-70
2024/01/03 05:02:29;;;;;;;48.42;18.67;;;;;;;2.27;94.86;99446.22;3146777;28;20122;-70
2024/01/03 05:04:01;;;;;;;43.45;19.23;;;;;;;2.32;94.94;99441.00;3146345;28;20052;-70
2024/01/03 05:05:33;;;;;;;53.03;19.80;;;;;;;2.38;94.75;99446.03;3146621;28;20048;-71
2024/01/03 05:07:04;;;;;;;43.38;18.90;;;;;;;2.42;94.60;99444.25;3146434;28;20045;-68
2024/01/03 05:08:36;;;;;;;47.78;19.30;;;;;;;2.44;94.56;99440.78;3146610;28;20501;-70
2024/01/03 05:10:09;;;;;;;54.60;20.60;;;;;;;2.48;94.47;99439.88;3146144;28;20067;-71
2024/01/03 05:11:41;;;;;;;52.70;21.85;;;;;;;2.52;94.42;99437.25;3146131;28;20539;-71
2024/01/03 05:13:12;;;;;;;51.28;21.27;;;;;;;2.55;94.26;99437.19;3145971;28;20528;-69
2024/01/03 05:14:44;;;;;;;45.88;19.38;;;;;;;2.58;94.10;99434.56;3147528;28;20056;-70
2024/01/03 05:16:14;;;;;;;47.85;19.80;;;;;;;2.62;94.06;99446.47;3146021;28;20045;-71
2024/01/03 05:17:46;;;;;;;57.42;20.73;;;;;;;2.64;93.94;99440.44;3146749;28;20056;-69
2024/01/03 05:19:17;;;;;;;48.47;20.67;;;;;;;2.67;93.88;99444.69;3146442;28;20048;-70
2024/01/03 05:20:49;;;;;;;52.38;21.20;;;;;;;2.68;93.97;99436.06;3144229;28;20044;-70
2024/01/03 05:22:19;;;;;;;53.20;21.17;;;;;;;2.70;93.80;99437.75;3146454;28;20158;-71
2024/01/03 05:23:51;;;;;;;56.60;22.23;;;;;;;2.73;93.71;99435.13;3142524;28;20064;-70
2024/01/03 05:25:23;;;;;;;52.95;21.00;;;;;;;2.76;93.71;99429.06;3134465;28;20056;-68
2024/01/03 05:26:55;;;;;;;55.30;21.88;;;;;;;2.75;93.53;99406.78;3138917;28;20131;-69
2024/01/03 05:28:26;;;;;;;47.70;20.58;;;;;;;2.77;93.42;99411.91;3143727;28;20059;-74
2024/01/03 05:29:58;;;;;;;53.63;21.70;;;;;;;2.79;93.54;99412.75;3145827;28;20040;-71
2024/01/03 05:31:28;;;;;;;62.75;27.73;;;;;;;2.78;93.34;99413.59;3146320;28;20052;-74
2024/01/03 05:33:00;;;;;;;59.42;22.85;;;;;;;2.81;93.47;99427.28;3145412;28;20510;-70
2024/01/03 05:34:31;;;;;;;78.28;32.08;;;;;;;2.85;93.51;99428.88;3146272;28;20522;-73
2024/01/03 05:36:04;;;;;;;142.93;56.15;;;;;;;2.90;93.38;99432.22;3146136;28;20052;-72
2024/01/03 05:37:35;;;;;;;77.38;27.15;;;;;;;2.92;93.21;99433.03;3145770;28;20052;-69
2024/01/03 05:39:06;;;;;;;56.95;22.58;;;;;;;2.60;93.05;99384.78;3145648;28;20052;-74
2024/01/03 05:40:39;;;;;;;49.78;21.45;;;;;;;2.94;92.89;99441.56;3139897;28;20056;-76
2024/01/03 05:42:10;;;;;;;51.70;20.25;;;;;;;2.89;92.92;99440.78;3142874;28;20079;-71
2024/01/03 05:43:42;;;;;;;50.47;21.38;;;;;;;2.92;92.76;99445.88;3145592;28;20048;-70
2024/01/03 05:45:13;;;;;;;53.45;19.70;;;;;;;2.92;92.83;99440.75;3145581;28;20052;-66
2024/01/03 05:46:45;;;;;;;53.70;21.05;;;;;;;2.86;92.73;99433.16;3145830;28;20528;-67
2024/01/03 05:48:17;;;;;;;54.05;21.92;;;;;;;2.90;92.75;99436.53;3133895;28;20155;-69
2024/01/03 05:49:50;;;;;;;60.70;23.42;;;;;;;2.93;92.82;99441.63;3145228;28;20053;-65
2024/01/03 05:51:22;;;;;;;58.08;20.95;;;;;;;2.83;92.63;99429.78;3145786;28;20560;-70
2024/01/03 05:52:53;;;;;;;52.55;21.85;;;;;;;2.84;92.71;99441.75;3145862;28;20125;-73
2024/01/03 05:54:25;;;;;;;51.88;20.45;;;;;;;2.79;92.74;99446.16;3138819;28;20048;-70
2024/01/03 05:55:57;;;;;;;58.10;22.35;;;;;;;2.77;93.04;99440.19;3139045;28;20041;-68
2024/01/03 05:57:29;;;;;;;147.43;57.97;;;;;;;2.82;93.10;99451.25;3140249;28;20514;-71
2024/01/03 05:59:04;;;;;;;83.88;36.67;;;;;;;2.84;93.21;99459.75;3142478;28;20045;-67
2024/01/03 06:00:54;;;;;;;79.68;36.45;;;;;;;2.90;92.90;99470.81;3142605;28;20133;-73
2024/01/03 06:02:25;;;;;;;166.30;66.55;;;;;;;2.93;93.12;99467.34;3140758;28;20052;-67
2024/01/03 06:03:57;;;;;;;197.52;81.22;;;;;;;2.97;93.00;99474.09;3139799;28;20501;-69
2024/01/03 06:05:28;;;;;;;76.63;29.33;;;;;;;3.06;92.90;99479.06;3144771;28;20064;-71
2024/01/03 06:07:00;;;;;;;66.75;24.30;;;;;;;3.08;92.68;99476.47;3139825;28;20076;-73
2024/01/03 06:08:32;;;;;;;73.20;25.42;;;;;;;3.08;92.60;99469.59;3145262;28;20061;-69
2024/01/03 06:10:05;;;;;;;71.25;23.90;;;;;;;3.06;92.71;99479.06;3145444;28;20163;-70
2024/01/03 06:11:38;;;;;;;;;;;;;;;2.97;92.50;99507.53;3145918;28;20135;-68
2024/01/03 06:13:14;;;;;;;66.63;23.05;;;;;;;3.00;92.81;99520.34;3145229;28;20018;-69
2024/01/03 06:14:46;;;;;;;85.90;30.45;;;;;;;3.02;92.83;99515.16;3144829;28;20135;-70
2024/01/03 06:16:17;;;;;;;75.07;24.98;;;;;;;3.00;92.87;99506.63;3145520;28;20055;-68
2024/01/03 06:17:50;;;;;;;77.45;26.52;;;;;;;3.06;92.78;99501.38;3145729;28;20068;-69
2024/01/03 06:19:22;;;;;;;69.65;25.20;;;;;;;3.07;92.81;99503.91;3145262;28;20080;-66
2024/01/03 06:20:53;;;;;;;74.47;25.88;;;;;;;3.05;92.78;99502.25;3145184;28;20081;-64
2024/01/03 06:22:24;;;;;;;71.20;25.30;;;;;;;2.93;92.74;99486.19;3145282;28;20048;-66
2024/01/03 06:23:56;;;;;;;76.00;24.38;;;;;;;3.10;92.89;99515.84;3145239;28;20049;-66
2024/01/03 06:25:27;;;;;;;72.93;24.40;;;;;;;3.10;92.79;99513.28;3145002;28;20061;-66
2024/01/03 06:27:00;;;;;;;67.57;24.83;;;;;;;3.13;92.84;99519.22;3145030;28;20052;-65
2024/01/03 06:28:31;;;;;;;73.05;25.77;;;;;;;3.12;92.81;99520.09;3145047;28;20513;-66
2024/01/03 06:30:04;;;;;;;72.82;26.83;;;;;;;3.13;92.73;99518.38;3145469;28;20051;-64
2024/01/03 06:31:35;;;;;;;66.03;22.60;;;;;;;3.11;92.70;99528.72;3145365;28;20113;-67
2024/01/03 06:33:07;;;;;;;65.97;24.35;;;;;;;3.13;92.87;99526.09;3145473;28;20044;-67
2024/01/03 06:34:38;;;;;;;60.80;21.95;;;;;;;3.12;92.71;99527.81;3144544;28;20052;-66
2024/01/03 06:36:10;;;;;;;51.95;21.30;;;;;;;3.11;92.87;99535.59;3141951;28;20481;-64
2024/01/03 06:37:41;;;;;;;61.60;21.77;;;;;;;3.08;92.85;99531.34;3144215;28;20154;-63
2024/01/03 06:39:13;;;;;;;51.05;20.67;;;;;;;3.08;92.83;99536.50;3142845;28;20048;-68
2024/01/03 06:40:44;;;;;;;44.83;19.95;;;;;;;3.07;92.86;99536.50;3142697;28;20041;-70
2024/01/03 06:42:17;;;;;;;50.95;22.05;;;;;;;3.08;92.89;99530.50;3144756;28;20060;-66
2024/01/03 06:43:48;;;;;;;48.97;21.42;;;;;;;3.06;92.87;99521.94;3144113;28;20071;-72
2024/01/03 06:45:20;;;;;;;51.58;21.20;;;;;;;3.07;92.93;99521.06;3144916;28;20052;-69
2024/01/03 06:46:51;;;;;;;50.88;20.85;;;;;;;3.06;92.84;99527.09;3145295;28;20529;-69
2024/01/03 06:48:23;;;;;;;52.60;20.00;;;;;;;2.91;92.82;99498.22;3145068;28;20088;-65
2024/01/03 06:49:54;;;;;;;52.03;19.55;;;;;;;3.05;92.84;99515.97;3132941;28;20136;-64
2024/01/03 06:51:26;;;;;;;46.53;20.80;;;;;;;3.00;92.83;99498.91;3144473;28;20052;-66
2024/01/03 06:52:57;;;;;;;56.47;20.40;;;;;;;3.05;92.86;99502.25;3145153;28;20528;-69
2024/01/03 06:54:29;;;;;;;48.47;19.70;;;;;;;3.05;92.94;99503.09;3144562;28;20217;-67
2024/01/03 06:56:00;;;;;;;55.38;21.63;;;;;;;3.06;92.83;99502.22;3145060;28;20218;-66
2024/01/03 06:57:33;;;;;;;54.17;20.67;;;;;;;3.10;92.88;99500.41;3145234;28;20735;-63
2024/01/03 06:59:04;;;;;;;53.53;20.00;;;;;;;3.11;92.96;99505.56;3143972;28;20101;-65
2024/01/03 07:00:36;;;;;;;55.28;21.15;;;;;;;3.16;92.84;99510.59;3144868;28;20829;-64
2024/01/03 07:02:09;;;;;;;57.20;22.30;;;;;;;3.18;92.83;99507.13;3144594;28;20041;-65
2024/01/03 07:03:40;;;;;;;61.50;25.15;;;;;;;3.22;92.81;99500.19;3144775;28;20613;-65
2024/01/03 07:05:12;;;;;;;66.57;26.73;;;;;;;3.26;92.87;99498.41;3145194;28;20131;-67
2024/01/03 07:06:45;;;;;;;76.68;32.10;;;;;;;3.30;92.82;99497.47;3144623;28;20044;-69
2024/01/03 07:08:16;;;;;;;67.93;29.47;;;;;;;3.33;92.58;99494.81;3145097;28;20048;-66